createdAt,value
2019-03-29T00:01:41.859Z,100.00
2019-03-29T00:04:16.097Z,100.00
2019-03-29T00:06:50.428Z,100.00
2019-03-29T00:09:26.267Z,100.00
2019-03-29T00:12:02.411Z,100.00
2019-03-29T00:14:36.617Z,100.00
2019-03-29T00:17:12.154Z,100.00
2019-03-29T00:19:46.887Z,100.00
2019-03-29T00:22:22.037Z,100.00
2019-03-29T00:24:56.490Z,100.00
2019-03-29T00:27:30.699Z,100.00
2019-03-29T00:30:05.297Z,100.00
2019-03-29T00:32:41.141Z,100.00
2019-03-29T00:35:16.643Z,100.00
2019-03-29T00:37:53.690Z,100.00
2019-03-29T00:40:26.912Z,100.00
2019-03-29T00:43:01.309Z,100.00
2019-03-29T00:45:35.853Z,100.00
2019-03-29T00:48:11.743Z,100.00
2019-03-29T00:50:45.966Z,100.00
2019-03-29T00:53:19.587Z,100.00
2019-03-29T00:55:51.870Z,100.00
2019-03-29T00:58:25.592Z,100.00
2019-03-29T01:01:01.811Z,100.00
2019-03-29T01:03:37.028Z,100.00
2019-03-29T01:06:11.367Z,100.00
2019-03-29T01:08:45.858Z,100.00
2019-03-29T01:11:19.735Z,100.00
2019-03-29T01:13:54.773Z,100.00
2019-03-29T01:16:29.226Z,100.00
2019-03-29T01:19:04.035Z,100.00
2019-03-29T01:21:39.978Z,100.00
2019-03-29T01:24:14.405Z,100.00
2019-03-29T01:26:50.290Z,100.00
2019-03-29T01:29:25.085Z,100.00
2019-03-29T01:31:59.382Z,100.00
2019-03-29T01:34:33.506Z,100.00
2019-03-29T01:37:07.663Z,100.00
2019-03-29T01:39:43.029Z,100.00
2019-03-29T01:42:18.885Z,100.00
2019-03-29T01:44:54.133Z,100.00
2019-03-29T01:47:29.928Z,100.00
2019-03-29T01:50:04.440Z,100.00
2019-03-29T01:52:39.066Z,100.00
2019-03-29T01:55:13.708Z,100.00
2019-03-29T01:57:48.003Z,100.00
2019-03-29T02:00:32.863Z,100.00
2019-03-29T02:03:07.329Z,100.00
2019-03-29T02:05:41.810Z,100.00
2019-03-29T02:08:15.708Z,100.00
2019-03-29T02:10:50.100Z,100.00
2019-03-29T02:13:25.981Z,100.00
2019-03-29T02:16:00.695Z,100.00
2019-03-29T02:18:35.100Z,100.00
2019-03-29T02:21:10.628Z,100.00
2019-03-29T02:23:44.935Z,100.00
2019-03-29T02:26:19.446Z,100.00
2019-03-29T02:28:55.157Z,100.00
2019-03-29T02:31:30.338Z,100.00
2019-03-29T02:34:06.592Z,100.00
2019-03-29T02:36:40.936Z,100.00
2019-03-29T02:39:15.046Z,100.00
2019-03-29T02:41:50.258Z,100.00
2019-03-29T02:44:24.762Z,100.00
2019-03-29T02:47:00.748Z,100.00
2019-03-29T02:49:36.545Z,100.00
2019-03-29T02:52:11.372Z,100.00
2019-03-29T02:54:45.330Z,100.00
2019-03-29T02:57:19.410Z,100.00
2019-03-29T02:59:54.134Z,100.00
2019-03-29T03:02:28.983Z,100.00
2019-03-29T03:05:03.610Z,100.00
2019-03-29T03:07:38.336Z,100.00
2019-03-29T03:10:14.383Z,100.00
2019-03-29T03:12:49.093Z,100.00
2019-03-29T03:15:24.177Z,100.00
2019-03-29T03:17:57.689Z,100.00
2019-03-29T03:20:29.665Z,100.00
2019-03-29T03:23:03.495Z,100.00
2019-03-29T03:25:37.771Z,100.00
2019-03-29T03:28:11.601Z,100.00
2019-03-29T03:30:47.082Z,100.00
2019-03-29T03:33:20.951Z,100.00
2019-03-29T03:35:55.109Z,100.00
2019-03-29T03:38:30.230Z,100.00
2019-03-29T03:41:04.364Z,100.00
2019-03-29T03:43:38.867Z,100.00
2019-03-29T03:46:13.597Z,100.00
2019-03-29T03:48:52.413Z,100.00
2019-03-29T03:51:28.845Z,100.00
2019-03-29T03:54:02.896Z,100.00
2019-03-29T03:56:38.800Z,100.00
2019-03-29T03:59:14.835Z,100.00
2019-03-29T04:01:50.335Z,100.00
2019-03-29T04:04:27.268Z,100.00
2019-03-29T04:07:04.348Z,100.00
2019-03-29T04:09:49.450Z,100.00
2019-03-29T04:12:17.369Z,100.00
2019-03-29T04:14:51.806Z,100.00
2019-03-29T04:17:30.740Z,100.00
2019-03-29T04:20:08.493Z,100.00
2019-03-29T04:22:43.138Z,100.00
2019-03-29T04:25:22.577Z,100.00
2019-03-29T04:27:56.078Z,100.00
2019-03-29T04:30:29.915Z,100.00
2019-03-29T04:33:05.074Z,100.00
2019-03-29T04:35:39.339Z,100.00
2019-03-29T04:38:15.547Z,100.00
2019-03-29T04:40:49.620Z,100.00
2019-03-29T04:43:27.940Z,100.00
2019-03-29T04:46:03.118Z,100.00
2019-03-29T04:48:45.219Z,100.00
2019-03-29T04:52:05.353Z,100.00
2019-03-29T04:55:07.431Z,100.00
2019-03-29T04:57:44.159Z,100.00
2019-03-29T05:00:18.408Z,100.00
2019-03-29T05:02:53.089Z,100.00
2019-03-29T05:05:26.942Z,100.00
2019-03-29T05:08:03.841Z,100.00
2019-03-29T05:10:39.814Z,100.00
2019-03-29T05:13:15.584Z,100.00
2019-03-29T05:15:50.583Z,100.00
2019-03-29T05:18:27.255Z,100.00
2019-03-29T05:21:02.346Z,100.00
2019-03-29T05:23:36.741Z,100.00
2019-03-29T05:26:11.522Z,100.00
2019-03-29T05:28:49.175Z,100.00
2019-03-29T05:31:27.485Z,100.00
2019-03-29T05:34:01.341Z,100.00
2019-03-29T05:36:37.374Z,100.00
2019-03-29T05:39:13.407Z,100.00
2019-03-29T05:41:49.950Z,100.00
2019-03-29T05:44:41.964Z,100.00
2019-03-29T05:48:04.165Z,100.00
2019-03-29T05:50:39.970Z,100.00
2019-03-29T05:53:14.475Z,100.00
2019-03-29T05:55:49.838Z,100.00
2019-03-29T05:58:25.532Z,100.00
2019-03-29T06:01:01.337Z,100.00
2019-03-29T06:03:36.614Z,100.00
2019-03-29T06:06:12.909Z,100.00
2019-03-29T06:08:49.179Z,100.00
2019-03-29T06:11:24.109Z,100.00
2019-03-29T06:13:59.894Z,100.00
2019-03-29T06:16:39.093Z,100.00
2019-03-29T06:19:13.721Z,100.00
2019-03-29T06:21:49.037Z,100.00
2019-03-29T06:24:24.260Z,100.00
2019-03-29T06:26:59.504Z,100.00
2019-03-29T06:29:33.401Z,100.00
2019-03-29T06:32:07.289Z,100.00
2019-03-29T06:34:41.130Z,100.00
2019-03-29T06:37:20.910Z,100.00
2019-03-29T06:39:56.927Z,100.00
2019-03-29T06:42:31.034Z,100.00
2019-03-29T06:45:08.814Z,100.00
2019-03-29T06:47:44.178Z,100.00
2019-03-29T06:50:18.091Z,100.00
2019-03-29T06:52:53.151Z,100.00
2019-03-29T06:55:27.650Z,100.00
2019-03-29T06:58:02.345Z,100.00
2019-03-29T07:00:37.270Z,100.00
2019-03-29T07:03:11.026Z,100.00
2019-03-29T07:05:45.178Z,100.00
2019-03-29T07:08:20.305Z,100.00
2019-03-29T07:10:56.208Z,100.00
2019-03-29T07:13:30.287Z,100.00
2019-03-29T07:16:06.589Z,100.00
2019-03-29T07:18:42.100Z,100.00
2019-03-29T07:21:21.798Z,100.00
2019-03-29T07:23:53.743Z,100.00
2019-03-29T07:26:28.727Z,100.00
2019-03-29T07:29:03.612Z,100.00
2019-03-29T07:31:38.112Z,100.00
2019-03-29T07:34:13.397Z,100.00
2019-03-29T07:36:47.314Z,100.00
2019-03-29T07:39:47.069Z,100.00
2019-03-29T07:42:21.673Z,100.00
2019-03-29T07:44:56.501Z,100.00
2019-03-29T07:47:30.715Z,100.00
2019-03-29T07:50:05.128Z,100.00
2019-03-29T07:52:39.437Z,98.90
2019-03-29T07:55:13.518Z,96.71
2019-03-29T07:57:48.467Z,94.72
2019-03-29T08:00:22.771Z,93.14
2019-03-29T08:02:57.434Z,91.43
2019-03-29T08:05:35.156Z,89.51
2019-03-29T08:08:17.753Z,87.67
2019-03-29T08:10:43.681Z,86.36
2019-03-29T08:13:18.935Z,85.27
2019-03-29T08:15:53.881Z,83.95
2019-03-29T08:18:28.158Z,83.77
2019-03-29T08:21:02.008Z,82.13
2019-03-29T08:23:36.167Z,81.01
2019-03-29T08:26:11.153Z,79.85
2019-03-29T08:28:46.862Z,80.05
2019-03-29T08:31:20.988Z,78.61
2019-03-29T08:33:55.552Z,77.54
2019-03-29T08:36:29.942Z,76.66
2019-03-29T08:39:06.193Z,76.33
2019-03-29T08:41:41.160Z,74.64
2019-03-29T08:44:15.570Z,72.10
2019-03-29T08:46:49.991Z,70.02
2019-03-29T08:49:24.229Z,69.75
2019-03-29T08:51:58.797Z,68.76
2019-03-29T08:54:34.568Z,68.27
2019-03-29T08:57:10.727Z,68.25
2019-03-29T08:59:45.965Z,67.65
2019-03-29T09:02:20.239Z,67.21
2019-03-29T09:04:55.080Z,66.81
2019-03-29T09:07:43.988Z,66.42
2019-03-29T09:10:13.123Z,66.36
2019-03-29T09:12:50.187Z,66.29
2019-03-29T09:15:24.858Z,67.67
2019-03-29T09:18:00.147Z,67.73
2019-03-29T09:20:34.866Z,66.35
2019-03-29T09:23:10.670Z,66.26
2019-03-29T09:25:45.230Z,65.57
2019-03-29T09:28:19.387Z,65.42
2019-03-29T09:30:56.460Z,64.07
2019-03-29T09:33:29.784Z,64.40
2019-03-29T09:36:05.228Z,63.23
2019-03-29T09:38:43.612Z,63.37
2019-03-29T09:41:17.261Z,63.76
2019-03-29T09:43:54.231Z,64.61
2019-03-29T09:46:28.944Z,63.43
2019-03-29T09:49:02.796Z,62.80
2019-03-29T09:51:37.058Z,63.86
2019-03-29T09:54:11.163Z,63.24
2019-03-29T09:56:48.102Z,62.31
2019-03-29T09:59:22.997Z,62.44
2019-03-29T10:01:55.346Z,61.81
2019-03-29T10:04:30.020Z,61.37
2019-03-29T10:07:04.467Z,61.85
2019-03-29T10:09:37.968Z,60.08
2019-03-29T10:12:11.903Z,60.47
2019-03-29T10:14:45.759Z,60.68
2019-03-29T10:17:19.301Z,59.67
2019-03-29T10:19:53.443Z,58.60
2019-03-29T10:22:29.026Z,57.16
2019-03-29T10:25:17.987Z,57.03
2019-03-29T10:27:38.516Z,56.34
2019-03-29T10:30:13.181Z,55.82
2019-03-29T10:32:49.229Z,55.85
2019-03-29T10:35:23.417Z,56.35
2019-03-29T10:37:57.365Z,56.71
2019-03-29T10:40:31.908Z,55.57
2019-03-29T10:43:06.218Z,56.02
2019-03-29T10:45:41.398Z,53.44
2019-03-29T10:48:15.252Z,53.91
2019-03-29T10:50:49.488Z,53.61
2019-03-29T10:53:24.046Z,53.48
2019-03-29T10:55:57.935Z,53.74
2019-03-29T10:58:32.559Z,55.08
2019-03-29T11:01:07.530Z,55.88
2019-03-29T11:03:43.659Z,54.93
2019-03-29T11:06:17.622Z,53.34
2019-03-29T11:08:51.982Z,51.51
2019-03-29T11:11:26.813Z,50.73
2019-03-29T11:14:00.777Z,51.01
2019-03-29T11:16:35.990Z,52.52
2019-03-29T11:19:10.247Z,53.74
2019-03-29T11:21:46.513Z,52.15
2019-03-29T11:24:21.178Z,52.25
2019-03-29T11:26:55.930Z,52.96
2019-03-29T11:29:30.834Z,54.89
2019-03-29T11:32:04.906Z,51.56
2019-03-29T11:34:38.078Z,52.38
2019-03-29T11:37:11.377Z,53.87
2019-03-29T11:39:45.653Z,51.36
2019-03-29T11:42:20.139Z,50.90
2019-03-29T11:44:53.981Z,50.00
2019-03-29T11:47:27.294Z,51.62
2019-03-29T11:50:02.475Z,50.52
2019-03-29T11:52:37.689Z,48.43
2019-03-29T11:55:11.852Z,50.54
2019-03-29T11:57:46.784Z,49.33
2019-03-29T12:00:34.689Z,47.70
2019-03-29T12:03:09.758Z,49.79
2019-03-29T12:05:43.783Z,47.15
2019-03-29T12:08:18.410Z,48.75
2019-03-29T12:10:52.997Z,48.34
2019-03-29T12:13:40.411Z,47.81
2019-03-29T12:16:04.000Z,47.76
2019-03-29T12:18:38.266Z,46.31
2019-03-29T12:21:12.991Z,46.50
2019-03-29T12:23:46.968Z,48.14
2019-03-29T12:26:20.969Z,47.50
2019-03-29T12:28:55.126Z,45.97
2019-03-29T12:31:30.025Z,47.74
2019-03-29T12:34:04.636Z,47.47
2019-03-29T12:36:39.103Z,47.18
2019-03-29T12:39:13.696Z,45.63
2019-03-29T12:41:48.303Z,46.44
2019-03-29T12:44:23.267Z,47.61
2019-03-29T12:46:57.453Z,46.00
2019-03-29T12:49:32.597Z,46.77
2019-03-29T12:52:06.706Z,47.68
2019-03-29T12:54:43.230Z,47.73
2019-03-29T12:57:18.465Z,46.61
2019-03-29T12:59:52.326Z,45.10
2019-03-29T13:02:25.795Z,45.14
2019-03-29T13:05:00.409Z,45.52
2019-03-29T13:07:35.434Z,45.31
2019-03-29T13:10:12.598Z,45.02
2019-03-29T13:12:47.642Z,43.42
2019-03-29T13:15:21.583Z,43.85
2019-03-29T13:17:55.203Z,47.23
2019-03-29T13:20:29.756Z,44.61
2019-03-29T13:23:04.756Z,45.69
2019-03-29T13:25:39.210Z,45.71
2019-03-29T13:28:16.113Z,45.09
2019-03-29T13:30:50.286Z,43.74
2019-03-29T13:33:24.620Z,43.79
2019-03-29T13:35:59.336Z,43.80
2019-03-29T13:38:34.125Z,43.94
2019-03-29T13:41:09.135Z,44.90
2019-03-29T13:43:43.517Z,47.09
2019-03-29T13:46:18.048Z,44.71
2019-03-29T13:48:52.540Z,44.48
2019-03-29T13:51:26.869Z,43.38
2019-03-29T13:54:00.967Z,44.22
2019-03-29T13:56:36.014Z,43.40
2019-03-29T13:59:10.548Z,44.62
2019-03-29T14:01:45.380Z,45.52
2019-03-29T14:04:19.869Z,46.60
2019-03-29T14:06:54.387Z,47.76
2019-03-29T14:09:29.475Z,45.59
2019-03-29T14:12:04.943Z,44.99
2019-03-29T14:14:39.590Z,43.80
2019-03-29T14:17:14.377Z,43.33
2019-03-29T14:19:49.066Z,45.09
2019-03-29T14:22:24.191Z,44.69
2019-03-29T14:24:58.309Z,43.97
2019-03-29T14:27:33.930Z,44.00
2019-03-29T14:30:09.579Z,42.99
2019-03-29T14:32:45.567Z,43.04
2019-03-29T14:35:20.695Z,44.00
2019-03-29T14:37:55.348Z,43.66
2019-03-29T14:40:29.592Z,42.32
2019-03-29T14:43:03.862Z,43.62
2019-03-29T14:45:37.813Z,42.59
2019-03-29T14:48:11.883Z,43.81
2019-03-29T14:50:46.448Z,42.95
2019-03-29T14:53:21.335Z,43.97
2019-03-29T14:55:58.986Z,46.02
2019-03-29T14:58:31.908Z,43.91
2019-03-29T15:01:07.617Z,44.92
2019-03-29T15:03:41.917Z,44.33
2019-03-29T15:06:15.829Z,44.54
2019-03-29T15:08:49.920Z,45.29
2019-03-29T15:11:24.683Z,45.37
2019-03-29T15:14:00.020Z,43.65
2019-03-29T15:16:33.479Z,43.39
2019-03-29T15:19:10.177Z,42.15
2019-03-29T15:21:44.662Z,43.43
2019-03-29T15:24:18.756Z,41.79
2019-03-29T15:26:53.067Z,40.49
2019-03-29T15:29:27.544Z,41.69
2019-03-29T15:32:02.339Z,41.96
2019-03-29T15:34:35.953Z,44.27
2019-03-29T15:37:10.305Z,44.02
2019-03-29T15:39:44.893Z,42.53
2019-03-29T15:42:20.568Z,42.25
2019-03-29T15:44:54.545Z,43.69
2019-03-29T15:47:29.246Z,43.73
2019-03-29T15:50:03.879Z,42.79
2019-03-29T15:52:37.902Z,42.85
2019-03-29T15:55:11.588Z,41.75
2019-03-29T15:57:46.818Z,42.25
2019-03-29T16:00:22.062Z,41.65
2019-03-29T16:02:58.300Z,42.98
2019-03-29T16:05:34.437Z,43.47
2019-03-29T16:08:09.126Z,43.88
2019-03-29T16:10:43.737Z,44.46
2019-03-29T16:13:18.347Z,44.42
2019-03-29T16:15:52.709Z,46.90
2019-03-29T16:18:27.020Z,45.95
2019-03-29T16:21:00.946Z,47.08
2019-03-29T16:23:35.759Z,47.62
2019-03-29T16:26:09.571Z,47.56
2019-03-29T16:28:43.471Z,47.44
2019-03-29T16:31:18.387Z,47.25
2019-03-29T16:33:53.004Z,48.54
2019-03-29T16:36:26.562Z,47.37
2019-03-29T16:39:01.494Z,47.07
2019-03-29T16:41:36.331Z,48.48
2019-03-29T16:44:10.918Z,49.33
2019-03-29T16:46:44.793Z,48.80
2019-03-29T16:49:19.306Z,48.78
2019-03-29T16:51:53.924Z,49.43
2019-03-29T16:54:29.378Z,49.90
2019-03-29T16:57:03.969Z,50.65
2019-03-29T16:59:37.953Z,50.36
2019-03-29T17:02:12.481Z,51.36
2019-03-29T17:04:48.246Z,52.11
2019-03-29T17:07:22.972Z,51.62
2019-03-29T17:09:57.129Z,52.17
2019-03-29T17:12:32.681Z,52.36
2019-03-29T17:15:07.651Z,51.90
2019-03-29T17:17:43.189Z,53.42
2019-03-29T17:20:16.730Z,52.76
2019-03-29T17:22:51.341Z,53.34
2019-03-29T17:25:25.556Z,53.91
2019-03-29T17:28:00.800Z,54.23
2019-03-29T17:30:59.211Z,54.09
2019-03-29T17:33:32.959Z,54.36
2019-03-29T17:36:10.780Z,55.02
2019-03-29T17:38:45.212Z,55.47
2019-03-29T17:41:19.611Z,55.32
2019-03-29T17:43:54.237Z,55.03
2019-03-29T17:46:28.440Z,55.92
2019-03-29T17:49:02.797Z,55.62
2019-03-29T17:51:37.534Z,56.06
2019-03-29T17:54:11.988Z,56.35
2019-03-29T17:56:49.300Z,57.44
2019-03-29T17:59:23.243Z,57.32
2019-03-29T18:02:08.886Z,58.53
2019-03-29T18:04:34.287Z,59.28
2019-03-29T18:07:09.301Z,59.81
2019-03-29T18:09:44.717Z,60.19
2019-03-29T18:12:19.320Z,60.57
2019-03-29T18:14:54.320Z,61.19
2019-03-29T18:17:29.768Z,61.24
2019-03-29T18:20:05.475Z,61.38
2019-03-29T18:22:40.639Z,61.90
2019-03-29T18:25:15.960Z,62.40
2019-03-29T18:27:52.311Z,62.31
2019-03-29T18:30:43.986Z,63.01
2019-03-29T18:33:19.020Z,62.95
2019-03-29T18:35:54.564Z,63.60
2019-03-29T18:38:30.955Z,64.06
2019-03-29T18:41:06.128Z,64.43
2019-03-29T18:43:40.767Z,64.84
2019-03-29T18:46:15.004Z,65.47
2019-03-29T18:48:50.049Z,65.54
2019-03-29T18:51:24.835Z,65.66
2019-03-29T18:53:58.974Z,66.25
2019-03-29T18:56:34.435Z,66.59
2019-03-29T18:59:09.925Z,66.87
2019-03-29T19:01:44.491Z,67.15
2019-03-29T19:04:18.892Z,67.48
2019-03-29T19:06:53.234Z,67.82
2019-03-29T19:09:27.941Z,67.59
2019-03-29T19:12:02.838Z,68.15
2019-03-29T19:14:37.543Z,68.53
2019-03-29T19:17:12.795Z,69.01
2019-03-29T19:19:47.217Z,69.42
2019-03-29T19:22:21.510Z,70.31
2019-03-29T19:25:00.343Z,70.25
2019-03-29T19:27:35.252Z,70.52
2019-03-29T19:30:09.931Z,70.73
2019-03-29T19:32:46.469Z,71.25
2019-03-29T19:35:21.011Z,71.76
2019-03-29T19:37:55.450Z,71.83
2019-03-29T19:40:30.697Z,73.42
2019-03-29T19:43:05.274Z,73.28
2019-03-29T19:45:40.142Z,73.61
2019-03-29T19:48:14.618Z,74.08
2019-03-29T19:50:50.504Z,74.77
2019-03-29T19:53:25.779Z,74.94
2019-03-29T19:56:00.699Z,75.71
2019-03-29T19:58:35.411Z,76.23
2019-03-29T20:01:12.763Z,76.02
2019-03-29T20:03:46.814Z,76.16
2019-03-29T20:06:21.457Z,76.70
2019-03-29T20:08:55.800Z,77.32
2019-03-29T20:11:30.600Z,77.67
2019-03-29T20:14:04.266Z,77.66
2019-03-29T20:16:40.056Z,77.53
2019-03-29T20:19:14.448Z,78.34
2019-03-29T20:21:49.637Z,78.75
2019-03-29T20:24:27.451Z,78.74
2019-03-29T20:27:02.007Z,78.77
2019-03-29T20:29:38.040Z,79.29
2019-03-29T20:32:11.961Z,79.49
2019-03-29T20:34:47.722Z,79.72
2019-03-29T20:37:23.785Z,79.86
2019-03-29T20:40:00.560Z,80.06
2019-03-29T20:42:34.915Z,80.31
2019-03-29T20:45:13.010Z,80.16
2019-03-29T20:47:51.870Z,80.64
2019-03-29T20:50:26.189Z,80.45
2019-03-29T20:53:01.360Z,80.92
2019-03-29T20:55:43.035Z,81.79
2019-03-29T20:58:18.672Z,81.69
2019-03-29T21:00:54.264Z,81.79
2019-03-29T21:03:28.633Z,82.43
2019-03-29T21:06:06.546Z,82.59
2019-03-29T21:08:45.740Z,83.24
2019-03-29T21:11:20.007Z,83.66
2019-03-29T21:13:55.918Z,84.23
2019-03-29T21:16:30.934Z,83.07
2019-03-29T21:19:04.725Z,84.39
2019-03-29T21:21:40.568Z,84.94
2019-03-29T21:24:16.153Z,85.42
2019-03-29T21:26:51.910Z,85.46
2019-03-29T21:29:26.899Z,85.50
2019-03-29T21:32:02.585Z,86.21
2019-03-29T21:34:37.264Z,84.85
2019-03-29T21:37:12.149Z,85.97
2019-03-29T21:39:47.851Z,85.09
2019-03-29T21:42:22.980Z,86.20
2019-03-29T21:44:57.551Z,86.43
2019-03-29T21:47:40.860Z,87.40
2019-03-29T21:50:27.725Z,87.34
2019-03-29T21:53:03.696Z,86.65
2019-03-29T21:55:40.361Z,87.56
2019-03-29T21:58:15.219Z,87.96
2019-03-29T22:00:50.006Z,88.37
2019-03-29T22:03:23.672Z,88.47
2019-03-29T22:05:57.894Z,88.54
2019-03-29T22:08:32.154Z,88.78
2019-03-29T22:11:07.011Z,89.25
2019-03-29T22:13:42.288Z,89.49
2019-03-29T22:16:17.049Z,90.60
2019-03-29T22:18:52.116Z,90.27
2019-03-29T22:21:27.058Z,91.23
2019-03-29T22:24:03.319Z,90.65
2019-03-29T22:26:38.585Z,91.38
2019-03-29T22:29:14.579Z,90.68
2019-03-29T22:31:49.322Z,90.63
2019-03-29T22:34:23.606Z,90.29
2019-03-29T22:36:58.443Z,90.23
2019-03-29T22:39:33.336Z,90.71
2019-03-29T22:42:08.629Z,91.11
2019-03-29T22:44:42.694Z,91.47
2019-03-29T22:47:18.448Z,92.54
2019-03-29T22:49:52.654Z,92.78
2019-03-29T22:52:27.642Z,92.74
2019-03-29T22:55:07.075Z,93.05
2019-03-29T22:57:40.918Z,92.57
2019-03-29T23:00:27.379Z,93.48
2019-03-29T23:03:01.568Z,93.28
2019-03-29T23:05:36.892Z,93.66
2019-03-29T23:08:12.456Z,93.05
2019-03-29T23:10:47.294Z,93.48
2019-03-29T23:13:23.449Z,93.51
2019-03-29T23:15:58.133Z,93.38
2019-03-29T23:18:32.415Z,93.25
2019-03-29T23:21:06.378Z,93.48
2019-03-29T23:23:40.776Z,93.05
2019-03-29T23:26:16.006Z,93.74
2019-03-29T23:28:50.262Z,93.78
2019-03-29T23:31:24.597Z,94.94
2019-03-29T23:33:58.719Z,96.01
2019-03-29T23:36:32.512Z,94.68
2019-03-29T23:39:07.174Z,94.21
2019-03-29T23:41:42.167Z,94.22
2019-03-29T23:44:16.017Z,94.93
2019-03-29T23:46:50.641Z,95.20
2019-03-29T23:49:25.201Z,95.66
2019-03-29T23:52:00.130Z,95.68
2019-03-29T23:54:35.189Z,96.34
2019-03-29T23:57:10.551Z,95.94
2019-03-29T23:59:45.843Z,95.24
